Time;durP1;ratioP1;P1;durP2;ratioP2;P2;SDS_P1;SDS_P2;PMS_P1;PMS_P2;Temp;Humidity;BMP_temperature;BMP_pressure;BME280_temperature;BME280_humidity;BME280_pressure;Samples;Min_cycle;Max_cycle;Signal;HPM_P1;HPM_P2
2022/04/11 00:01:16;;;;;;;7.20;3.40;;;;;;;1.29;85.31;96958.94;5039334;28;20127;-70
2022/04/11 00:03:42;;;;;;;5.82;3.65;;;;;;;1.27;86.23;96961.16;5039843;28;20132;-68
2022/04/11 00:06:08;;;;;;;6.10;3.47;;;;;;;1.14;84.99;96954.66;4993264;28;20124;-69
2022/04/11 00:08:33;;;;;;;8.70;3.88;;;;;;;1.05;86.03;96953.75;5004665;28;20687;-68
2022/04/11 00:10:58;;;;;;;7.78;3.80;;;;;;;0.97;87.75;96949.81;4988784;28;20041;-69
2022/04/11 00:13:24;;;;;;;5.88;4.38;;;;;;;1.00;90.20;96953.84;5000445;28;20545;-68
2022/04/11 00:15:50;;;;;;;5.68;3.53;;;;;;;0.90;88.81;96944.84;4988163;28;20042;-67
2022/04/11 00:18:16;;;;;;;6.03;3.35;;;;;;;0.72;89.77;96953.78;5000546;28;20439;-68
2022/04/11 00:20:41;;;;;;;7.70;4.07;;;;;;;0.60;91.72;96946.19;5005409;28;20080;-67
2022/04/11 00:23:07;;;;;;;5.95;3.97;;;;;;;0.36;95.70;96947.13;5009325;28;20048;-69
2022/04/11 00:25:34;;;;;;;5.57;3.80;;;;;;;0.41;96.36;96950.81;5023163;28;20474;-68
2022/04/11 00:27:59;;;;;;;6.68;4.18;;;;;;;0.52;96.68;96949.53;5023732;28;20103;-68
2022/04/11 00:30:25;;;;;;;5.65;4.13;;;;;;;0.56;95.56;96950.56;5018080;28;20490;-69
2022/04/11 00:32:50;;;;;;;6.28;4.40;;;;;;;0.63;95.86;96958.25;5023795;28;20041;-67
2022/04/11 00:35:15;;;;;;;7.45;4.13;;;;;;;0.60;95.46;96946.19;5018467;28;20346;-70
2022/04/11 00:37:41;;;;;;;6.63;3.67;;;;;;;0.51;95.35;96947.97;5023540;28;20072;-68
2022/04/11 00:40:08;;;;;;;6.03;4.30;;;;;;;0.54;96.92;96933.88;5017620;28;20053;-68
2022/04/11 00:42:34;;;;;;;4.88;3.97;;;;;;;0.59;96.76;96935.69;5022813;28;20042;-68
2022/04/11 00:45:00;;;;;;;5.80;4.22;;;;;;;0.55;96.55;96930.88;5022705;28;20391;-69
2022/04/11 00:47:26;;;;;;;7.10;3.97;;;;;;;0.57;97.28;96928.69;4998865;28;20037;-69
2022/04/11 00:50:00;;;;;;;5.20;3.47;;;;;;;0.49;97.73;96934.78;5022609;28;20087;-68
2022/04/11 00:52:28;;;;;;;6.70;4.53;;;;;;;0.45;98.53;96932.94;4999618;28;20064;-68
2022/04/11 00:54:54;;;;;;;8.50;4.03;;;;;;;0.37;98.39;96929.03;5023075;28;20053;-69
2022/04/11 00:57:21;;;;;;;8.25;3.90;;;;;;;0.23;98.43;96931.69;4999886;28;20048;-66
2022/04/11 00:59:46;;;;;;;6.68;4.07;;;;;;;0.31;99.66;96928.31;5020643;28;20455;-69
2022/04/11 01:02:12;;;;;;;5.32;4.13;;;;;;;0.12;98.77;96936.44;5018358;28;20128;-68
2022/04/11 01:04:38;;;;;;;8.07;4.93;;;;;;;-0.17;100.00;96925.81;5022130;28;20167;-69
2022/04/11 01:07:04;;;;;;;8.45;4.10;;;;;;;-0.14;100.00;96929.84;4981676;28;20049;-71
2022/04/11 01:09:29;;;;;;;8.50;4.65;;;;;;;-0.42;100.00;96930.47;5001545;28;20041;-70
2022/04/11 01:11:55;;;;;;;6.35;4.70;;;;;;;-0.56;100.00;96926.09;5002732;28;20057;-69
2022/04/11 01:14:20;;;;;;;7.60;4.35;;;;;;;-0.49;100.00;96921.94;5000358;28;20041;-70
2022/04/11 01:16:47;;;;;;;11.60;4.78;;;;;;;-0.41;100.00;96931.28;5013716;28;20072;-69
2022/04/11 01:19:13;;;;;;;8.05;4.28;;;;;;;-0.31;100.00;96924.94;4983427;28;20050;-70
2022/04/11 01:21:38;;;;;;;6.82;4.10;;;;;;;-0.26;100.00;96927.56;5016592;28;20539;-69
2022/04/11 01:24:04;;;;;;;7.38;4.70;;;;;;;-0.17;100.00;96930.41;5006445;28;20052;-73
2022/04/11 01:26:30;;;;;;;6.50;4.53;;;;;;;-0.14;100.00;96929.84;5027251;28;20055;-69
2022/04/11 01:28:57;;;;;;;6.60;4.43;;;;;;;-0.20;100.00;96921.84;5030795;28;20040;-69
2022/04/11 01:31:22;;;;;;;6.95;4.70;;;;;;;-0.06;100.00;96918.41;5017897;28;20057;-68
2022/04/11 01:33:48;;;;;;;6.65;4.60;;;;;;;0.05;100.00;96919.03;5023172;28;20044;-69
2022/04/11 01:36:13;;;;;;;6.82;4.50;;;;;;;0.02;100.00;96915.06;5015332;28;20125;-70
2022/04/11 01:38:38;;;;;;;9.30;4.57;;;;;;;0.04;100.00;96915.56;5031199;28;20045;-67
2022/04/11 01:41:04;;;;;;;7.60;4.80;;;;;;;0.03;100.00;96902.38;5019987;28;20486;-72
2022/04/11 01:43:29;;;;;;;6.18;4.32;;;;;;;0.16;100.00;96899.75;5031273;28;20053;-70
2022/04/11 01:45:55;;;;;;;6.03;4.50;;;;;;;0.16;100.00;96907.84;5034823;28;20363;-69
2022/04/11 01:48:20;;;;;;;7.85;4.55;;;;;;;0.05;100.00;96895.59;5027066;28;20045;-69
2022/04/11 01:50:46;;;;;;;6.78;4.30;;;;;;;-0.10;100.00;96891.25;5013384;28;20174;-69
2022/04/11 01:53:15;;;;;;;8.57;4.57;;;;;;;-0.06;100.00;96889.56;5011080;28;20065;-70
2022/04/11 01:55:40;;;;;;;9.60;4.93;;;;;;;-0.06;100.00;96878.81;5034601;28;20090;-69
2022/04/11 01:58:07;;;;;;;8.90;4.20;;;;;;;-0.15;100.00;96885.16;5044255;23;20523;-66
2022/04/11 02:00:33;;;;;;;7.00;4.78;;;;;;;-0.14;100.00;96879.47;5006795;28;20044;-65
2022/04/11 02:02:59;;;;;;;12.02;5.22;;;;;;;-0.11;100.00;96868.13;5034730;28;20481;-61
2022/04/11 02:05:28;;;;;;;9.00;4.70;;;;;;;-0.01;98.81;96872.56;5024589;28;20041;-65
2022/04/11 02:07:55;;;;;;;6.57;4.82;;;;;;;0.01;98.63;96854.19;5033903;28;20036;-63
2022/04/11 02:10:21;;;;;;;8.80;5.10;;;;;;;0.00;98.43;96868.78;5019983;28;20041;-68
2022/04/11 02:12:49;;;;;;;6.85;4.72;;;;;;;0.11;97.94;96861.31;5010374;28;20049;-61
2022/04/11 02:15:16;;;;;;;8.95;6.05;;;;;;;0.24;96.79;96862.47;5011777;28;20075;-69
2022/04/11 02:17:41;;;;;;;7.38;4.97;;;;;;;0.24;96.00;96857.88;5026342;28;20064;-62
2022/04/11 02:20:08;;;;;;;10.98;5.43;;;;;;;0.22;96.31;96851.16;5014479;28;20046;-66
2022/04/11 02:22:53;;;;;;;7.07;5.05;;;;;;;0.16;95.96;96861.22;5029728;28;20041;-62
2022/04/11 02:25:24;;;;;;;12.05;5.93;;;;;;;0.25;95.04;96861.34;5016595;28;20037;-65
2022/04/11 02:27:50;;;;;;;7.57;5.40;;;;;;;0.17;95.26;96855.53;5022364;28;20147;-65
2022/04/11 02:30:16;;;;;;;7.43;4.88;;;;;;;0.12;96.21;96844.84;5016858;28;20553;-67
2022/04/11 02:32:42;;;;;;;6.82;4.15;;;;;;;-0.12;97.68;96854.97;5021322;28;20038;-62
2022/04/11 02:35:08;;;;;;;6.38;4.47;;;;;;;-0.20;98.19;96845.63;5023479;28;20480;-65
2022/04/11 02:37:34;;;;;;;6.35;4.50;;;;;;;-0.10;98.67;96842.78;5004002;28;20173;-66
2022/04/11 02:40:00;;;;;;;6.38;4.28;;;;;;;0.00;97.84;96836.47;5021145;28;20041;-63
2022/04/11 02:42:27;;;;;;;10.93;4.82;;;;;;;-0.10;97.26;96837.41;5016704;28;20119;-65
2022/04/11 02:44:54;;;;;;;11.90;4.95;;;;;;;0.08;96.14;96829.59;5027314;28;20136;-62
2022/04/11 02:47:20;;;;;;;8.27;4.88;;;;;;;0.07;96.28;96831.47;5014586;28;20041;-62
2022/04/11 02:49:46;;;;;;;8.95;5.00;;;;;;;0.07;95.86;96827.97;5017190;28;20555;-61
2022/04/11 02:52:11;;;;;;;15.43;4.60;;;;;;;0.26;96.04;96830.63;5019440;28;20049;-62
2022/04/11 02:54:37;;;;;;;6.82;4.43;;;;;;;0.26;95.09;96823.34;5020774;28;20040;-63
2022/04/11 02:57:03;;;;;;;7.10;4.63;;;;;;;0.46;92.90;96824.06;5017950;28;20041;-69
2022/04/11 02:59:29;;;;;;;8.32;4.32;;;;;;;0.42;93.13;96815.78;5021672;28;20055;-64
2022/04/11 03:01:55;;;;;;;8.18;4.60;;;;;;;0.54;93.06;96818.78;5020971;28;20038;-64
2022/04/11 03:04:21;;;;;;;8.43;4.93;;;;;;;0.55;92.68;96806.91;5014940;28;20050;-62
2022/04/11 03:06:47;;;;;;;10.18;4.93;;;;;;;0.45;93.41;96798.22;5029355;28;20049;-63
2022/04/11 03:09:12;;;;;;;8.57;4.55;;;;;;;0.48;92.75;96798.41;5016950;28;20045;-65
2022/04/11 03:11:37;;;;;;;8.10;4.90;;;;;;;0.42;93.15;96790.75;5020663;28;20073;-64
2022/04/11 03:14:03;;;;;;;7.60;4.75;;;;;;;0.41;93.75;96781.06;5027110;28;20044;-68
2022/04/11 03:16:29;;;;;;;7.90;4.60;;;;;;;0.24;94.48;96778.94;5019111;28;20414;-62
2022/04/11 03:18:54;;;;;;;8.07;4.82;;;;;;;0.33;94.70;96772.56;5011371;28;20063;-64
2022/04/11 03:21:19;;;;;;;9.07;4.72;;;;;;;0.41;94.73;96771.06;4999992;28;20049;-64
2022/04/11 03:23:45;;;;;;;6.80;4.43;;;;;;;0.46;93.42;96778.25;5019713;28;20045;-63
2022/04/11 03:26:11;;;;;;;9.23;4.72;;;;;;;0.40;93.30;96760.56;5006992;28;20045;-69
2022/04/11 03:28:36;;;;;;;7.75;4.60;;;;;;;0.61;91.03;96756.38;5041245;28;20045;-67
2022/04/11 03:31:02;;;;;;;7.10;5.18;;;;;;;0.53;91.81;96757.09;5026151;28;20049;-69
2022/04/11 03:33:27;;;;;;;7.90;4.95;;;;;;;0.40;91.83;96747.94;5025771;28;20069;-61
2022/04/11 03:35:52;;;;;;;8.23;4.38;;;;;;;0.32;92.77;96746.69;5020551;28;20128;-63
2022/04/11 03:38:18;;;;;;;8.25;4.53;;;;;;;0.33;93.23;96736.75;5016082;28;20099;-64
2022/04/11 03:40:43;;;;;;;7.15;4.40;;;;;;;0.38;92.81;96734.75;5021173;28;20049;-62
2022/04/11 03:43:09;;;;;;;5.78;4.03;;;;;;;0.48;92.47;96722.94;4999746;28;20041;-62
2022/04/11 03:45:34;;;;;;;11.07;4.78;;;;;;;0.60;91.43;96713.59;5023937;28;20040;-64
2022/04/11 03:48:00;;;;;;;6.88;4.57;;;;;;;0.59;91.93;96706.59;5008962;28;20041;-67
2022/04/11 03:50:25;;;;;;;10.07;4.88;;;;;;;0.59;91.81;96709.28;5031232;28;20045;-61
2022/04/11 03:52:51;;;;;;;6.85;4.47;;;;;;;0.57;91.91;96710.38;5023003;28;20048;-65
2022/04/11 03:55:16;;;;;;;9.20;5.13;;;;;;;0.47;93.45;96713.28;5005358;28;20041;-68
2022/04/11 03:57:42;;;;;;;7.15;4.95;;;;;;;0.41;94.01;96711.00;5041685;28;20107;-63
2022/04/11 04:00:08;;;;;;;7.78;4.72;;;;;;;0.37;94.21;96705.41;5039085;28;20125;-68
2022/04/11 04:02:34;;;;;;;5.78;4.38;;;;;;;0.31;94.35;96704.72;5011080;28;20045;-62
2022/04/11 04:04:59;;;;;;;6.97;4.30;;;;;;;0.43;93.09;96703.41;5017121;28;20042;-67
2022/04/11 04:07:25;;;;;;;9.00;5.20;;;;;;;0.35;94.24;96704.91;5039027;28;20125;-67
2022/04/11 04:09:50;;;;;;;10.13;4.95;;;;;;;0.31;94.09;96701.22;5043010;28;20047;-68
2022/04/11 04:12:20;;;;;;;9.25;4.78;;;;;;;0.36;93.64;96709.19;5055285;28;20045;-64
2022/04/11 04:14:46;;;;;;;;;;;;;;;0.45;92.52;96707.41;5045779;28;20041;-60
2022/04/11 04:17:11;;;;;;;9.63;4.50;;;;;;;0.52;91.23;96705.09;5035562;28;19920;-65
2022/04/11 04:19:36;;;;;;;13.43;5.28;;;;;;;0.49;91.31;96716.47;5040622;28;20195;-61
2022/04/11 04:22:02;;;;;;;8.90;4.75;;;;;;;0.49;91.09;96700.31;5020739;28;20037;-72
2022/04/11 04:24:28;;;;;;;7.68;4.30;;;;;;;0.52;90.25;96704.28;5006544;28;20174;-61
2022/04/11 04:26:53;;;;;;;8.38;4.90;;;;;;;0.69;88.92;96709.06;5025198;28;20049;-64
2022/04/11 04:29:20;;;;;;;7.18;4.40;;;;;;;0.74;87.91;96714.38;5021138;28;20045;-60
2022/04/11 04:31:47;;;;;;;13.75;5.00;;;;;;;0.65;89.00;96710.75;5020718;28;20095;-67
2022/04/11 04:34:13;;;;;;;6.05;3.75;;;;;;;0.59;88.93;96707.38;5015862;28;20037;-63
2022/04/11 04:36:39;;;;;;;9.52;4.40;;;;;;;0.61;88.87;96701.69;5023981;28;20052;-61
2022/04/11 04:39:04;;;;;;;7.68;4.78;;;;;;;0.60;88.88;96703.59;5025265;28;20149;-73
2022/04/11 04:41:30;;;;;;;5.57;3.53;;;;;;;0.63;88.65;96707.56;5027853;28;20120;-66
2022/04/11 04:43:55;;;;;;;6.55;3.70;;;;;;;0.61;88.89;96715.16;5045244;28;20049;-62
2022/04/11 04:46:21;;;;;;;6.75;3.92;;;;;;;0.54;88.66;96727.16;5038201;28;20202;-63
2022/04/11 04:48:47;;;;;;;6.13;3.47;;;;;;;0.54;89.28;96727.16;5030393;28;20044;-65
2022/04/11 04:51:12;;;;;;;8.60;4.07;;;;;;;0.55;88.69;96725.25;5019884;28;20038;-65
2022/04/11 04:53:37;;;;;;;6.47;4.35;;;;;;;0.72;90.20;96732.72;5027267;28;20072;-63
2022/04/11 04:56:03;;;;;;;6.30;4.03;;;;;;;0.72;89.81;96733.53;5023702;28;20052;-64
2022/04/11 04:58:29;;;;;;;8.82;3.88;;;;;;;0.59;89.68;96722.75;5023504;28;20135;-62
2022/04/11 05:00:54;;;;;;;6.97;3.58;;;;;;;0.06;92.97;96716.78;5020254;28;20379;-62
2022/04/11 05:03:20;;;;;;;6.57;3.72;;;;;;;-0.12;94.01;96721.13;5000579;28;20037;-65
2022/04/11 05:05:45;;;;;;;8.38;4.50;;;;;;;-0.64;98.55;96726.56;5023639;28;20038;-64
2022/04/11 05:08:10;;;;;;;8.13;4.72;;;;;;;-0.51;99.42;96732.31;5025984;28;20489;-67
2022/04/11 05:10:36;;;;;;;7.55;4.72;;;;;;;-0.18;98.08;96732.28;5023645;28;20087;-64
2022/04/11 05:13:01;;;;;;;6.97;4.50;;;;;;;0.07;98.91;96731.81;5024106;28;20041;-65
2022/04/11 05:15:27;;;;;;;5.80;4.65;;;;;;;0.10;96.12;96730.44;5017712;28;20046;-65
2022/04/11 05:17:53;;;;;;;9.07;5.03;;;;;;;-0.19;96.37;96726.09;5029859;28;20457;-63
2022/04/11 05:20:18;;;;;;;7.28;4.93;;;;;;;-0.31;97.67;96726.56;5053594;28;20104;-70
2022/04/11 05:22:44;;;;;;;11.57;5.75;;;;;;;-0.07;98.56;96723.75;5028629;28;20044;-64
2022/04/11 05:25:09;;;;;;;8.60;5.22;;;;;;;0.23;98.31;96736.94;5022780;28;20045;-65
2022/04/11 05:27:35;;;;;;;13.65;5.40;;;;;;;0.90;96.74;96741.78;5024233;28;20056;-63
2022/04/11 05:30:00;;;;;;;9.93;5.20;;;;;;;1.41;90.73;96746.03;5018922;28;20037;-63
2022/04/11 05:32:25;;;;;;;9.30;5.10;;;;;;;1.82;88.11;96745.03;5012829;28;20039;-65
2022/04/11 05:34:51;;;;;;;9.02;4.93;;;;;;;2.74;84.75;96744.47;5029573;28;20082;-64
2022/04/11 05:37:16;;;;;;;15.43;6.60;;;;;;;4.01;76.98;96744.31;5018290;28;20517;-66
2022/04/11 05:39:42;;;;;;;14.13;6.85;;;;;;;5.51;70.37;96745.13;5023363;28;20037;-64
2022/04/11 05:42:08;;;;;;;11.15;5.53;;;;;;;6.70;64.02;96750.78;5001321;28;20052;-64
2022/04/11 05:44:33;;;;;;;9.07;4.13;;;;;;;7.14;59.53;96749.41;5016022;28;20046;-64
2022/04/11 05:46:59;;;;;;;7.20;4.43;;;;;;;8.60;55.68;96749.94;5044506;28;20049;-65
2022/04/11 05:49:24;;;;;;;7.40;3.95;;;;;;;9.10;53.88;96752.28;5038198;28;20043;-66
2022/04/11 05:51:50;;;;;;;8.95;4.30;;;;;;;9.88;50.25;96753.16;5043213;28;20041;-65
2022/04/11 05:54:15;;;;;;;7.90;4.05;;;;;;;10.36;51.89;96755.66;5021389;28;20468;-65
2022/04/11 05:56:41;;;;;;;7.70;4.78;;;;;;;10.68;49.28;96760.91;5043344;28;20040;-66
2022/04/11 05:59:08;;;;;;;6.78;4.03;;;;;;;11.40;48.55;96751.06;5027322;28;20055;-66
2022/04/11 06:01:35;;;;;;;5.82;3.30;;;;;;;12.15;43.81;96756.69;5034950;28;20040;-64
2022/04/11 06:04:01;;;;;;;6.40;2.80;;;;;;;11.32;46.34;96746.63;5025706;28;20049;-65
2022/04/11 06:06:26;;;;;;;5.38;3.38;;;;;;;11.77;45.03;96755.84;5039095;28;20547;-65
2022/04/11 06:08:51;;;;;;;5.53;2.65;;;;;;;12.99;41.23;96744.13;5043538;28;20051;-66
2022/04/11 06:11:17;;;;;;;6.85;3.00;;;;;;;14.45;38.17;96755.47;5032559;28;20046;-66
2022/04/11 06:13:45;;;;;;;6.18;3.50;;;;;;;15.54;36.78;96751.53;5030442;28;20044;-65
2022/04/11 06:16:13;;;;;;;9.55;4.95;;;;;;;15.09;35.10;96758.31;5021468;28;20057;-66
2022/04/11 06:18:39;;;;;;;5.85;3.00;;;;;;;14.95;37.61;96749.25;5012291;28;20096;-64
2022/04/11 06:21:04;;;;;;;8.00;6.15;;;;;;;14.46;37.20;96749.56;5021498;28;20869;-70
2022/04/11 06:23:30;;;;;;;4.70;3.13;;;;;;;14.19;37.30;96759.31;5018715;28;20177;-65
2022/04/11 06:25:55;;;;;;;6.13;2.60;;;;;;;13.83;38.40;96756.44;4993762;28;20046;-69
2022/04/11 06:28:21;;;;;;;4.32;2.03;;;;;;;11.59;40.07;96759.13;5027268;28;20059;-65
2022/04/11 06:30:46;;;;;;;4.90;3.28;;;;;;;12.10;41.10;96774.31;5023520;28;20041;-64
2022/04/11 06:33:12;;;;;;;4.50;2.92;;;;;;;12.02;41.82;96773.41;5024593;28;20064;-66
2022/04/11 06:35:37;;;;;;;10.43;7.35;;;;;;;9.04;48.00;96765.44;5032424;28;20080;-63
2022/04/11 06:38:03;;;;;;;22.23;12.77;;;;;;;8.74;49.56;96767.84;5033123;28;20057;-70
2022/04/11 06:40:28;;;;;;;12.15;8.10;;;;;;;8.01;50.92;96767.09;5035088;28;20049;-65
2022/04/11 06:42:54;;;;;;;7.25;3.80;;;;;;;9.71;46.77;96759.84;5053959;28;20112;-66
2022/04/11 06:45:19;;;;;;;10.27;5.50;;;;;;;7.68;52.56;96754.50;5055332;28;20048;-69
2022/04/11 06:47:46;;;;;;;9.88;6.65;;;;;;;7.11;54.36;96756.31;5028373;28;20064;-64
2022/04/11 06:50:11;;;;;;;9.32;4.35;;;;;;;7.49;53.52;96757.06;5038710;28;20047;-67
2022/04/11 06:52:37;;;;;;;6.28;4.10;;;;;;;6.95;56.40;96753.53;5026168;28;20135;-65
2022/04/11 06:55:02;;;;;;;18.77;11.40;;;;;;;7.14;55.90;96749.41;5021546;28;20075;-69
2022/04/11 06:57:29;;;;;;;7.53;3.83;;;;;;;8.35;52.87;96740.31;5011884;28;20057;-63
2022/04/11 06:59:54;;;;;;;21.63;10.10;;;;;;;7.43;54.34;96727.31;5023029;28;20041;-62
2022/04/11 07:02:21;;;;;;;7.68;4.20;;;;;;;6.87;56.25;96736.16;5017676;28;20041;-62
2022/04/11 07:04:46;;;;;;;22.55;11.30;;;;;;;7.56;52.83;96736.25;5030301;28;20401;-60
2022/04/11 07:07:12;;;;;;;5.13;3.08;;;;;;;6.95;55.21;96739.91;5020306;28;20045;-66
2022/04/11 07:09:37;;;;;;;25.75;11.35;;;;;;;7.56;54.57;96739.00;5013593;28;20091;-64
2022/04/11 07:12:03;;;;;;;6.57;2.33;;;;;;;8.45;52.23;96739.81;5029478;28;20046;-71
2022/04/11 07:14:29;;;;;;;10.25;6.28;;;;;;;8.10;52.81;96742.38;5021816;28;20049;-64
2022/04/11 07:16:54;;;;;;;6.47;3.85;;;;;;;8.34;51.15;96744.19;5013130;28;20053;-63
2022/04/11 07:19:21;;;;;;;3.97;2.50;;;;;;;9.31;48.77;96739.09;5015948;28;20054;-64
2022/04/11 07:21:47;;;;;;;2.17;1.67;;;;;;;9.61;45.53;96744.00;5001436;28;20099;-64
2022/04/11 07:24:14;;;;;;;4.18;1.85;;;;;;;11.23;42.71;96758.63;5009553;28;20041;-64
2022/04/11 07:26:40;;;;;;;3.85;1.77;;;;;;;8.42;47.46;96748.69;5022907;28;20045;-63
2022/04/11 07:29:06;;;;;;;5.80;1.92;;;;;;;8.48;48.18;96755.50;5017692;28;20038;-65
2022/04/11 07:31:32;;;;;;;4.60;1.67;;;;;;;9.64;44.88;96754.25;5010873;28;20046;-66
2022/04/11 07:33:57;;;;;;;3.60;1.98;;;;;;;10.81;41.92;96745.84;5020829;28;20748;-62
2022/04/11 07:36:23;;;;;;;2.60;1.10;;;;;;;10.82;43.50;96752.13;5025509;28;20916;-63
2022/04/11 07:38:48;;;;;;;5.55;1.48;;;;;;;13.28;37.19;96743.53;5022074;28;20038;-70
2022/04/11 07:41:14;;;;;;;3.85;1.70;;;;;;;14.78;33.39;96742.53;5000431;28;20439;-67
2022/04/11 07:43:40;;;;;;;4.53;1.33;;;;;;;15.28;32.26;96740.53;5023197;28;20474;-68
2022/04/11 07:46:05;;;;;;;3.10;1.50;;;;;;;14.68;32.54;96735.84;5017310;28;20095;-69
2022/04/11 07:48:32;;;;;;;2.67;1.35;;;;;;;14.63;33.66;96736.25;5005670;28;20045;-68
2022/04/11 07:50:58;;;;;;;4.47;1.60;;;;;;;14.08;34.11;96740.81;5012774;28;20045;-67
2022/04/11 07:53:24;;;;;;;2.70;1.63;;;;;;;9.66;41.45;96748.41;5008717;28;20052;-64
2022/04/11 07:55:49;;;;;;;3.35;1.88;;;;;;;9.58;41.25;96744.75;5011968;28;20106;-65
2022/04/11 07:58:16;;;;;;;1.77;1.30;;;;;;;12.87;36.55;96736.19;5007731;23;20042;-67
2022/04/11 08:00:42;;;;;;;3.33;1.60;;;;;;;14.37;34.54;96734.59;4993224;28;20070;-66
2022/04/11 08:03:08;;;;;;;4.50;1.65;;;;;;;11.83;37.60;96733.19;4980354;28;20045;-67
2022/04/11 08:05:33;;;;;;;3.53;1.75;;;;;;;14.41;34.79;96732.63;5007790;28;20033;-68
2022/04/11 08:07:59;;;;;;;3.08;1.85;;;;;;;14.54;34.02;96739.34;4998785;28;20037;-68
2022/04/11 08:10:25;;;;;;;2.95;1.30;;;;;;;14.74;32.43;96727.97;4999823;28;20430;-65
2022/04/11 08:12:57;;;;;;;3.20;1.48;;;;;;;15.36;30.81;96730.28;5006723;28;20042;-65
2022/04/11 08:15:24;;;;;;;3.88;2.00;;;;;;;16.47;28.81;96731.81;4998895;28;20439;-65
2022/04/11 08:17:50;;;;;;;2.92;1.00;;;;;;;17.04;28.28;96736.19;5002117;28;20490;-67
2022/04/11 08:20:15;;;;;;;3.50;1.35;;;;;;;16.72;28.53;96737.19;5001246;28;20100;-68
2022/04/11 08:22:41;;;;;;;3.58;1.17;;;;;;;16.00;30.40;96737.59;5005891;28;20064;-68
2022/04/11 08:25:08;;;;;;;4.75;1.98;;;;;;;16.61;29.62;96745.56;4983380;28;20132;-67
2022/04/11 08:27:34;;;;;;;3.55;1.10;;;;;;;14.92;31.69;96739.78;5024332;28;20810;-66
2022/04/11 08:29:59;;;;;;;2.13;1.20;;;;;;;17.24;28.92;96736.38;5024399;28;20029;-67
2022/04/11 08:32:25;;;;;;;3.30;1.10;;;;;;;17.40;27.78;96744.16;5019595;28;20052;-67
2022/04/11 08:34:50;;;;;;;6.78;2.47;;;;;;;15.88;30.82;96746.31;5007923;28;20103;-67
2022/04/11 08:37:16;;;;;;;3.90;1.52;;;;;;;16.53;30.62;96746.81;4985254;28;20490;-67
2022/04/11 08:39:41;;;;;;;3.28;1.70;;;;;;;17.36;29.44;96732.34;5007048;28;20049;-67
2022/04/11 08:42:07;;;;;;;5.18;1.73;;;;;;;17.60;29.08;96735.25;5019523;28;20584;-68
2022/04/11 08:44:33;;;;;;;5.70;1.10;;;;;;;18.30;28.08;96738.38;5024962;28;20045;-67
2022/04/11 08:47:05;;;;;;;2.80;1.33;;;;;;;16.70;31.06;96734.03;5007211;28;20037;-68
2022/04/11 08:49:31;;;;;;;3.63;1.80;;;;;;;15.61;32.45;96740.47;5005956;28;20486;-67
2022/04/11 08:51:56;;;;;;;2.28;1.40;;;;;;;12.12;38.22;96736.28;5024724;28;20076;-67
2022/04/11 08:54:22;;;;;;;4.05;1.75;;;;;;;10.94;41.72;96735.47;5019187;28;20293;-66
2022/04/11 08:56:47;;;;;;;2.20;1.33;;;;;;;14.33;35.47;96726.31;5006906;28;20124;-66
2022/04/11 08:59:14;;;;;;;2.78;1.30;;;;;;;16.31;31.27;96714.94;5020679;28;20044;-66
2022/04/11 09:01:40;;;;;;;3.00;1.42;;;;;;;14.33;36.40;96718.84;5024878;28;20052;-68
2022/04/11 09:04:08;;;;;;;3.92;1.58;;;;;;;16.98;31.30;96715.69;5019811;28;20045;-69
2022/04/11 09:06:34;;;;;;;4.00;1.20;;;;;;;18.39;28.92;96710.13;5023952;28;20149;-67
2022/04/11 09:09:00;;;;;;;3.42;1.20;;;;;;;15.63;31.43;96708.53;5024534;28;20142;-67
2022/04/11 09:11:34;;;;;;;3.78;1.27;;;;;;;14.82;35.13;96726.78;5018832;28;20126;-66
2022/04/11 09:14:02;;;;;;;2.58;1.27;;;;;;;16.82;32.79;96716.97;5024327;28;20085;-67
2022/04/11 09:16:32;;;;;;;3.58;1.60;;;;;;;17.62;31.29;96703.16;5020026;28;20061;-67
2022/04/11 09:18:57;;;;;;;3.28;1.40;;;;;;;18.05;30.34;96713.75;5023588;28;20131;-69
2022/04/11 09:21:24;;;;;;;2.75;1.60;;;;;;;18.17;30.60;96709.66;5017563;28;20091;-67
2022/04/11 09:23:50;;;;;;;4.85;1.70;;;;;;;17.05;32.15;96703.75;5023997;28;20390;-68
2022/04/11 09:26:19;;;;;;;3.72;1.70;;;;;;;17.87;32.09;96700.13;5016182;28;20046;-69
2022/04/11 09:29:04;;;;;;;4.77;1.93;;;;;;;18.23;30.60;96699.66;5023051;28;20535;-67
2022/04/11 09:31:30;;;;;;;2.65;1.50;;;;;;;17.38;32.07;96707.78;5022564;28;20402;-69
2022/04/11 09:33:57;;;;;;;3.10;1.33;;;;;;;16.39;34.17;96702.66;5027317;28;20042;-68
2022/04/11 09:36:23;;;;;;;2.97;1.40;;;;;;;15.24;36.02;96705.88;5024106;28;20052;-67
2022/04/11 09:38:59;;;;;;;3.35;1.55;;;;;;;14.53;38.40;96711.00;5023753;28;20041;-67
2022/04/11 09:41:34;;;;;;;3.35;1.85;;;;;;;14.98;37.24;96702.38;5018687;28;20046;-65
2022/04/11 09:44:22;;;;;;;6.50;3.05;;;;;;;15.14;37.53;96699.19;5023222;28;20041;-65
2022/04/11 09:46:55;;;;;;;6.53;2.03;;;;;;;15.41;36.52;96702.28;5010843;28;20044;-66
2022/04/11 09:49:21;;;;;;;3.33;1.45;;;;;;;15.08;37.15;96698.00;5018267;28;20033;-68
2022/04/11 09:52:07;;;;;;;2.42;1.50;;;;;;;14.64;37.19;96708.28;5023475;28;20572;-66
2022/04/11 09:54:37;;;;;;;3.67;1.80;;;;;;;13.23;42.01;96686.16;5022189;28;20042;-67
2022/04/11 09:57:04;;;;;;;2.65;1.58;;;;;;;14.68;37.83;96697.25;5020332;28;20110;-71
2022/04/11 09:59:30;;;;;;;4.68;1.90;;;;;;;14.73;38.56;96683.09;5023699;28;20610;-66
2022/04/11 10:01:59;;;;;;;4.35;1.95;;;;;;;14.84;37.17;96680.31;5005263;28;20045;-67
2022/04/11 10:04:26;;;;;;;2.28;1.52;;;;;;;14.50;37.57;96686.19;5017561;28;20033;-68
2022/04/11 10:06:52;;;;;;;3.72;1.50;;;;;;;15.07;37.08;96682.63;5023767;28;20139;-66
2022/04/11 10:09:19;;;;;;;4.60;1.65;;;;;;;15.55;36.61;96667.53;5018467;28;20096;-67
2022/04/11 10:11:45;;;;;;;3.30;1.73;;;;;;;15.39;36.52;96679.81;5023071;28;20089;-66
2022/04/11 10:14:13;;;;;;;3.40;1.75;;;;;;;15.47;35.61;96672.31;5000383;28;20397;-67
2022/04/11 10:16:43;;;;;;;2.78;1.65;;;;;;;15.62;35.44;96673.81;5005464;28;20055;-68
2022/04/11 10:19:13;;;;;;;1.85;1.50;;;;;;;15.48;35.00;96674.69;5017895;28;20103;-66
2022/04/11 10:21:44;;;;;;;5.70;1.25;;;;;;;14.65;37.70;96674.00;5005135;28;20045;-67
2022/04/11 10:24:29;;;;;;;3.17;1.58;;;;;;;15.57;35.50;96667.94;5019204;28;20041;-66
2022/04/11 10:26:56;;;;;;;4.78;1.50;;;;;;;15.35;36.23;96668.00;5022047;28;20405;-68
2022/04/11 10:29:37;;;;;;;3.25;1.40;;;;;;;15.04;36.83;96662.16;5018323;28;20041;-66
2022/04/11 10:32:32;;;;;;;2.55;1.38;;;;;;;15.29;34.62;96655.81;5018887;28;20056;-69
2022/04/11 10:35:10;;;;;;;3.72;1.70;;;;;;;14.88;36.18;96661.78;4996934;28;20075;-66
2022/04/11 10:37:41;;;;;;;6.55;2.13;;;;;;;14.80;36.69;96658.28;5021619;28;20053;-66
2022/04/11 10:40:15;;;;;;;4.97;2.08;;;;;;;14.91;36.09;96655.50;5018247;28;20045;-65
2022/04/11 10:43:00;;;;;;;3.45;2.20;;;;;;;15.18;36.29;96646.75;5004729;28;20638;-68
2022/04/11 10:45:39;;;;;;;3.28;1.45;;;;;;;14.98;36.12;96651.91;5016268;28;20045;-64
2022/04/11 10:48:06;;;;;;;10.27;5.43;;;;;;;15.15;36.49;96634.56;5017103;28;20038;-68
2022/04/11 10:50:37;;;;;;;3.30;2.05;;;;;;;15.62;36.84;96643.44;5021957;28;20045;-66
2022/04/11 10:53:38;;;;;;;4.00;1.75;;;;;;;16.04;34.90;96643.66;5018157;28;20045;-67
2022/04/11 10:56:53;;;;;;;2.65;1.73;;;;;;;15.86;35.69;96635.47;4992372;28;20044;-68
2022/04/11 10:59:25;;;;;;;2.75;1.60;;;;;;;15.88;35.45;96633.09;5016840;28;20136;-68
2022/04/11 11:01:57;;;;;;;2.78;1.20;;;;;;;15.91;35.02;96632.28;5021318;28;20048;-68
2022/04/11 11:04:27;;;;;;;2.65;1.17;;;;;;;16.54;35.29;96623.16;5015800;28;20603;-67
2022/04/11 11:07:25;;;;;;;3.40;1.30;;;;;;;16.08;35.82;96618.75;5019995;28;20072;-68
2022/04/11 11:09:58;;;;;;;5.70;1.85;;;;;;;15.64;36.09;96620.97;5020128;28;20048;-69
2022/04/11 11:12:25;;;;;;;6.95;2.45;;;;;;;15.20;37.77;96614.06;5016119;28;20120;-68
2022/04/11 11:14:50;;;;;;;3.28;1.60;;;;;;;14.47;37.75;96621.63;5020847;28;20046;-67
2022/04/11 11:17:16;;;;;;;5.32;1.60;;;;;;;14.66;38.59;96622.44;5014479;28;20768;-69
2022/04/11 11:20:04;;;;;;;3.70;1.67;;;;;;;14.23;40.00;96608.66;5021294;28;20046;-68
2022/04/11 11:22:54;;;;;;;2.88;1.95;;;;;;;14.41;38.74;96614.94;5020466;28;20180;-68
2022/04/11 11:25:20;;;;;;;4.18;1.75;;;;;;;14.65;39.17;96605.09;5013256;28;20045;-68
2022/04/11 11:27:46;;;;;;;2.10;1.40;;;;;;;14.83;38.47;96599.56;5021019;28;20045;-67
2022/04/11 11:30:13;;;;;;;3.10;1.48;;;;;;;14.62;38.53;96610.63;5015623;28;20128;-66
2022/04/11 11:32:40;;;;;;;5.28;1.80;;;;;;;14.57;38.37;96595.25;5021651;28;20041;-66
2022/04/11 11:35:09;;;;;;;7.28;1.67;;;;;;;14.79;38.13;96598.00;5014602;28;20042;-67
2022/04/11 11:37:34;;;;;;;6.13;1.50;;;;;;;15.09;37.94;96594.78;5020559;28;20444;-67